Time;durP1;ratioP1;P1;durP2;ratioP2;P2;SDS_P1;SDS_P2;PMS_P1;PMS_P2;Temp;Humidity;BMP_temperature;BMP_pressure;BME280_temperature;BME280_humidity;BME280_pressure;Samples;Min_cycle;Max_cycle;Signal;HPM_P1;HPM_P2
2022/04/21 00:00:29;;;;;;;;;;;;;;;;;;5075779;28;29069;-93
2022/04/21 00:02:54;;;;;;;;;;;;;;;;;;5076879;28;28419;-91
2022/04/21 00:05:19;;;;;;;;;;;;;;;;;;5076309;28;28225;-90
2022/04/21 00:07:47;;;;;;;;;;;;;;;;;;5077399;28;28375;-92
2022/04/21 00:10:12;;;;;;;;;;;;;;;;;;5078944;28;28409;-88
2022/04/21 00:12:37;;;;;;;;;;;;;;;;;;5078362;28;28411;-90
2022/04/21 00:15:02;;;;;;;;;;;;;;;;;;5079002;28;28336;-91
2022/04/21 00:17:28;;;;;;;;;;;;;;;;;;5079047;28;28361;-91
2022/04/21 00:19:53;;;;;;;;;;;;;;;;;;5078687;28;28388;-91
2022/04/21 00:25:02;;;;;;;;;;;;;;;;;;5078435;28;28367;-91
2022/04/21 00:27:27;;;;;;;;;;;;;;;;;;5078459;28;28398;-90
2022/04/21 00:29:53;;;;;;;;;;;;;;;;;;5078421;28;28528;-90
2022/04/21 00:32:18;;;;;;;;;;;;;;;;;;5078238;28;28508;-90
2022/04/21 00:34:43;;;;;;;;;;;;;;;;;;5078601;28;28355;-90
2022/04/21 00:37:10;;;;;;;;;;;;;;;;;;5077957;28;28401;-90
2022/04/21 00:39:35;;;;;;;;;;;;;;;;;;5077766;28;29427;-90
2022/04/21 00:42:00;;;;;;;;;;;;;;;;;;5077980;28;28508;-90
2022/04/21 00:44:25;;;;;;;;;;;;;;;;;;5077977;28;28465;-90
2022/04/21 00:46:50;;;;;;;;;;;;;;;;;;5077748;28;28378;-91
2022/04/21 00:49:15;;;;;;;;;;;;;;;;;;5077861;28;28558;-90
2022/04/21 00:51:41;;;;;;;;;;;;;;;;;;5077994;28;28474;-91
2022/04/21 00:54:06;;;;;;;;;;;;;;;;;;5078508;28;28388;-91
2022/04/21 00:56:31;;;;;;;;;;;;;;;;;;5077247;28;28482;-92
2022/04/21 00:58:56;;;;;;;;;;;;;;;;;;5078254;28;29150;-91
2022/04/21 01:04:05;;;;;;;;;;;;;;;;;;5078024;28;27902;-89
2022/04/21 01:06:30;;;;;;;;;;;;;;;;;;5077783;28;28447;-89
2022/04/21 01:08:55;;;;;;;;;;;;;;;;;;5078015;28;28366;-90
2022/04/21 01:11:21;;;;;;;;;;;;;;;;;;5077396;28;28230;-89
2022/04/21 01:13:47;;;;;;;;;;;;;;;;;;5078409;28;28241;-89
2022/04/21 01:16:13;;;;;;;;;;;;;;;;;;5077761;28;28474;-91
2022/04/21 01:18:38;;;;;;;;;;;;;;;;;;5076664;28;29347;-91
2022/04/21 01:21:03;;;;;;;;;;;;;;;;;;5077119;28;28311;-90
2022/04/21 01:23:30;;;;;;;;;;;;;;;;;;5077742;28;28271;-90
2022/04/21 01:25:55;;;;;;;;;;;;;;;;;;5077765;28;28315;-90
2022/04/21 01:28:20;;;;;;;;;;;;;;;;;;5077995;28;33758;-91
2022/04/21 01:30:45;;;;;;;;;;;;;;;;;;5077609;28;28528;-90
2022/04/21 01:33:11;;;;;;;;;;;;;;;;;;5077283;28;28318;-90
2022/04/21 01:35:36;;;;;;;;;;;;;;;;;;5077564;28;28442;-90
2022/04/21 01:43:29;;;;;;;;;;;;;;;;;;5076874;28;28249;-88
2022/04/21 01:45:54;;;;;;;;;;;;;;;;;;5076828;28;28446;-89
2022/04/21 01:48:19;;;;;;;;;;;;;;;;;;5076714;28;28409;-89
2022/04/21 01:50:45;;;;;;;;;;;;;;;;;;5076717;28;28379;-90
2022/04/21 01:53:10;;;;;;;;;;;;;;;;;;5076930;28;28274;-90
2022/04/21 01:55:35;;;;;;;;;;;;;;;;;;5076762;28;35094;-89
2022/04/21 01:58:00;;;;;;;;;;;;;;;;;;5076328;28;28457;-90
2022/04/21 02:00:25;;;;;;;;;;;;;;;;;;5076483;28;28294;-89
2022/04/21 02:02:50;;;;;;;;;;;;;;;;;;5076619;28;28577;-90
2022/04/21 02:05:15;;;;;;;;;;;;;;;;;;5076739;28;28342;-89
2022/04/21 02:07:42;;;;;;;;;;;;;;;;;;5076096;28;28279;-89
2022/04/21 02:10:07;;;;;;;;;;;;;;;;;;5076233;28;28375;-89
2022/04/21 02:12:32;;;;;;;;;;;;;;;;;;5076561;28;28446;-89
2022/04/21 02:14:57;;;;;;;;;;;;;;;;;;5076522;28;28335;-88
2022/04/21 02:17:22;;;;;;;;;;;;;;;;;;5076212;28;28466;-88
2022/04/21 02:19:47;;;;;;;;;;;;;;;;;;5076184;28;28393;-88
2022/04/21 02:22:12;;;;;;;;;;;;;;;;;;5076176;28;28536;-89
2022/04/21 02:24:37;;;;;;;;;;;;;;;;;;5076504;28;28418;-89
2022/04/21 02:27:02;;;;;;;;;;;;;;;;;;5076203;28;28521;-89
2022/04/21 02:29:27;;;;;;;;;;;;;;;;;;5076351;28;27952;-90
2022/04/21 02:31:53;;;;;;;;;;;;;;;;;;5076059;28;27861;-89
2022/04/21 02:34:18;;;;;;;;;;;;;;;;;;5076396;28;28411;-89
2022/04/21 02:36:43;;;;;;;;;;;;;;;;;;5076047;28;29364;-90
2022/04/21 02:39:08;;;;;;;;;;;;;;;;;;5076172;28;28338;-89
2022/04/21 02:41:33;;;;;;;;;;;;;;;;;;5076158;28;28486;-90
2022/04/21 02:43:59;;;;;;;;;;;;;;;;;;5074037;28;27866;-89
2022/04/21 02:46:24;;;;;;;;;;;;;;;;;;5051730;28;28453;-89
2022/04/21 02:48:49;;;;;;;;;;;;;;;;;;5061852;28;28403;-90
2022/04/21 02:51:14;;;;;;;;;;;;;;;;;;5054317;28;28418;-88
2022/04/21 02:59:07;;;;;;;;;;;;;;;;;;5055425;28;28405;-88
2022/04/21 03:01:32;;;;;;;;;;;;;;;;;;5055421;28;28345;-89
2022/04/21 03:03:57;;;;;;;;;;;;;;;;;;5055682;28;28429;-89
2022/04/21 03:06:22;;;;;;;;;;;;;;;;;;5055238;28;28344;-89
2022/04/21 03:08:47;;;;;;;;;;;;;;;;;;5055263;28;28442;-88
2022/04/21 03:11:12;;;;;;;;;;;;;;;;;;5055199;28;28344;-89
2022/04/21 03:13:37;;;;;;;;;;;;;;;;;;5055162;28;28494;-89
2022/04/21 03:16:03;;;;;;;;;;;;;;;;;;5055154;28;28415;-88
2022/04/21 03:18:28;;;;;;;;;;;;;;;;;;5055263;28;28431;-88
2022/04/21 03:26:20;;;;;;;;;;;;;;;;;;5054921;28;28832;-88
2022/04/21 03:28:45;;;;;;;;;;;;;;;;;;5055066;28;28425;-88
2022/04/21 03:31:11;;;;;;;;;;;;;;;;;;5055250;28;28272;-88
2022/04/21 03:33:36;;;;;;;;;;;;;;;;;;5055114;28;28355;-89
2022/04/21 03:36:01;;;;;;;;;;;;;;;;;;5054701;28;29338;-87
2022/04/21 03:38:26;;;;;;;;;;;;;;;;;;5055097;28;28465;-87
2022/04/21 03:40:51;;;;;;;;;;;;;;;;;;5053690;28;28419;-87
2022/04/21 03:43:16;;;;;;;;;;;;;;;;;;5057474;28;28434;-87
2022/04/21 03:45:41;;;;;;;;;;;;;;;;;;5058329;28;28532;-88
2022/04/21 03:48:06;;;;;;;;;;;;;;;;;;5058622;28;28359;-86
2022/04/21 03:50:34;;;;;;;;;;;;;;;;;;5058413;28;28310;-86
2022/04/21 03:52:59;;;;;;;;;;;;;;;;;;5058375;28;27906;-86
2022/04/21 03:55:24;;;;;;;;;;;;;;;;;;5058394;28;29207;-86
2022/04/21 03:57:49;;;;;;;;;;;;;;;;;;5058238;28;28355;-87
2022/04/21 04:00:14;;;;;;;;;;;;;;;;;;5058283;28;28628;-86
2022/04/21 04:02:39;;;;;;;;;;;;;;;;;;5058337;28;28434;-87
2022/04/21 04:05:04;;;;;;;;;;;;;;;;;;5057842;28;28623;-87
2022/04/21 04:12:57;;;;;;;;;;;;;;;;;;5058272;28;28360;-88
2022/04/21 04:15:22;;;;;;;;;;;;;;;;;;5057916;28;29307;-88
2022/04/21 04:17:48;;;;;;;;;;;;;;;;;;5058128;28;28347;-87
2022/04/21 04:20:13;;;;;;;;;;;;;;;;;;5058035;28;28356;-87
2022/04/21 04:22:42;;;;;;;;;;;;;;;;;;5057928;28;28427;-88
2022/04/21 04:25:08;;;;;;;;;;;;;;;;;;5058018;28;28510;-87
2022/04/21 04:27:34;;;;;;;;;;;;;;;;;;5057956;28;28491;-88
2022/04/21 04:29:59;;;;;;;;;;;;;;;;;;5056531;28;28301;-87
2022/04/21 04:32:24;;;;;;;;;;;;;;;;;;5057896;28;28335;-88
2022/04/21 04:34:49;;;;;;;;;;;;;;;;;;5057484;28;28858;-88
2022/04/21 04:37:14;;;;;;;;;;;;;;;;;;5057949;28;28324;-87
2022/04/21 04:39:40;;;;;;;;;;;;;;;;;;5057432;28;28351;-87
2022/04/21 04:42:17;;;;;;;;;;;;;;;;;;5057937;28;28236;-87
2022/04/21 04:44:42;;;;;;;;;;;;;;;;;;5057653;28;29564;-88
2022/04/21 04:47:07;;;;;;;;;;;;;;;;;;5055919;28;29347;-88
2022/04/21 04:49:32;;;;;;;;;;;;;;;;;;5057613;28;28320;-89
2022/04/21 04:51:57;;;;;;;;;;;;;;;;;;5057723;28;28343;-89
2022/04/21 04:54:22;;;;;;;;;;;;;;;;;;5055809;28;28467;-88
2022/04/21 04:56:48;;;;;;;;;;;;;;;;;;5057260;28;28482;-88
2022/04/21 04:59:13;;;;;;;;;;;;;;;;;;5057255;28;28372;-87
2022/04/21 05:01:41;;;;;;;;;;;;;;;;;;5057466;28;28473;-88
2022/04/21 05:04:06;;;;;;;;;;;;;;;;;;5056757;28;28594;-88
2022/04/21 05:06:31;;;;;;;;;;;;;;;;;;5057126;28;28302;-86
2022/04/21 05:08:57;;;;;;;;;;;;;;;;;;5057094;28;28598;-87
2022/04/21 05:11:22;;;;;;;;;;;;;;;;;;5057158;28;28533;-86
2022/04/21 05:13:47;;;;;;;;;;;;;;;;;;5057241;28;29371;-88
2022/04/21 05:16:13;;;;;;;;;;;;;;;;;;5057316;28;28475;-86
2022/04/21 05:18:38;;;;;;;;;;;;;;;;;;5057081;28;28321;-87
2022/04/21 05:21:03;;;;;;;;;;;;;;;;;;5057197;28;28310;-87
2022/04/21 05:23:28;;;;;;;;;;;;;;;;;;5056854;28;28549;-88
2022/04/21 05:25:53;;;;;;;;;;;;;;;;;;5057079;28;28384;-87
2022/04/21 05:28:18;;;;;;;;;;;;;;;;;;5057065;28;28467;-87
2022/04/21 05:30:55;;;;;;;;;;;;;;;;;;5056573;28;28502;-87
2022/04/21 05:33:20;;;;;;;;;;;;;;;;;;5056773;28;28639;-87
2022/04/21 05:35:45;;;;;;;;;;;;;;;;;;5056665;28;28234;-87
2022/04/21 05:38:10;;;;;;;;;;;;;;;;;;5056808;28;28556;-87
2022/04/21 05:40:36;;;;;;;;;;;;;;;;;;5056905;28;28379;-87
2022/04/21 05:43:01;;;;;;;;;;;;;;;;;;5056588;28;28288;-86
2022/04/21 05:45:27;;;;;;;;;;;;;;;;;;5057036;28;28292;-87
2022/04/21 05:47:52;;;;;;;;;;;;;;;;;;5056436;28;28386;-89
2022/04/21 05:50:17;;;;;;;;;;;;;;;;;;5056894;28;28356;-86
2022/04/21 05:52:42;;;;;;;;;;;;;;;;;;5057444;28;29274;-87
2022/04/21 05:55:07;;;;;;;;;;;;;;;;;;5056154;28;28472;-86
2022/04/21 05:57:32;;;;;;;;;;;;;;;;;;5056643;28;28509;-87
2022/04/21 05:59:57;;;;;;;;;;;;;;;;;;5056396;28;28328;-87
2022/04/21 06:02:23;;;;;;;;;;;;;;;;;;5056523;28;28505;-88
2022/04/21 06:04:48;;;;;;;;;;;;;;;;;;5055838;28;28375;-87
2022/04/21 06:07:13;;;;;;;;;;;;;;;;;;5056253;28;28314;-87
2022/04/21 06:09:39;;;;;;;;;;;;;;;;;;5055939;28;28454;-87
2022/04/21 06:12:04;;;;;;;;;;;;;;;;;;5056083;28;28450;-87
2022/04/21 06:14:29;;;;;;;;;;;;;;;;;;5056054;28;28400;-86
2022/04/21 06:16:54;;;;;;;;;;;;;;;;;;5055958;28;28403;-86
2022/04/21 06:19:19;;;;;;;;;;;;;;;;;;5056293;28;28326;-86
2022/04/21 06:21:44;;;;;;;;;;;;;;;;;;5055925;28;28448;-88
2022/04/21 06:24:10;;;;;;;;;;;;;;;;;;5055646;28;28378;-86
2022/04/21 06:26:35;;;;;;;;;;;;;;;;;;5055781;28;28493;-88
2022/04/21 06:29:02;;;;;;;;;;;;;;;;;;5055564;28;28605;-88
2022/04/21 06:31:27;;;;;;;;;;;;;;;;;;5055872;28;28984;-88
2022/04/21 06:33:52;;;;;;;;;;;;;;;;;;5055760;28;28471;-89
2022/04/21 06:36:17;;;;;;;;;;;;;;;;;;5055768;28;28368;-88
2022/04/21 06:38:44;;;;;;;;;;;;;;;;;;5055948;28;28587;-87
2022/04/21 06:41:11;;;;;;;;;;;;;;;;;;5055371;28;28739;-88
2022/04/21 06:49:04;;;;;;;;;;;;;;;;;;5055448;28;28300;-86
2022/04/21 06:51:29;;;;;;;;;;;;;;;;;;5056016;28;28380;-88
2022/04/21 06:53:54;;;;;;;;;;;;;;;;;;5055175;28;28645;-87
2022/04/21 06:56:20;;;;;;;;;;;;;;;;;;5064391;28;28224;-87
2022/04/21 06:58:46;;;;;;;;;;;;;;;;;;5057764;28;28383;-84
2022/04/21 07:01:11;;;;;;;;;;;;;;;;;;5055503;28;28481;-85
2022/04/21 07:03:36;;;;;;;;;;;;;;;;;;5055437;28;28447;-87
2022/04/21 07:06:01;;;;;;;;;;;;;;;;;;5055624;28;28395;-84
2022/04/21 07:08:26;;;;;;;;;;;;;;;;;;5055278;28;28443;-84
2022/04/21 07:10:51;;;;;;;;;;;;;;;;;;5055281;28;28611;-82
2022/04/21 07:13:16;;;;;;;;;;;;;;;;;;5055271;28;28399;-83
2022/04/21 07:15:42;;;;;;;;;;;;;;;;;;5054942;28;28341;-83
2022/04/21 07:18:07;;;;;;;;;;;;;;;;;;5054380;28;27771;-83
2022/04/21 07:20:32;;;;;;;;;;;;;;;;;;5068574;28;28372;-86
2022/04/21 07:22:57;;;;;;;;;;;;;;;;;;5080849;28;28486;-82
2022/04/21 07:25:22;;;;;;;;;;;;;;;;;;5075003;28;28408;-82
2022/04/21 07:27:47;;;;;;;;;;;;;;;;;;5075213;28;28421;-82
2022/04/21 07:30:12;;;;;;;;;;;;;;;;;;5074892;28;29137;-83
2022/04/21 07:32:37;;;;;;;;;;;;;;;;;;5074718;28;28477;-83
2022/04/21 07:35:02;;;;;;;;;;;;;;;;;;5074633;28;28536;-82
2022/04/21 07:37:27;;;;;;;;;;;;;;;;;;5075282;28;28467;-84
2022/04/21 07:39:53;;;;;;;;;;;;;;;;;;5074607;28;28446;-83
2022/04/21 07:42:18;;;;;;;;;;;;;;;;;;5074977;28;28323;-83
2022/04/21 07:44:43;;;;;;;;;;;;;;;;;;5074639;28;28540;-84
2022/04/21 07:47:08;;;;;;;;;;;;;;;;;;5074501;28;28470;-82
2022/04/21 07:49:45;;;;;;;;;;;;;;;;;;5074610;28;28411;-83
2022/04/21 07:54:54;;;;;;;;;;;;;;;;;;5074515;28;28517;-83
2022/04/21 07:57:19;;;;;;;;;;;;;;;;;;5074844;28;28589;-83
2022/04/21 07:59:45;;;;;;;;;;;;;;;;;;5074569;28;28481;-84
2022/04/21 08:02:10;;;;;;;;;;;;;;;;;;5074405;28;28458;-84
2022/04/21 08:04:38;;;;;;;;;;;;;;;;;;5074817;28;28408;-84
2022/04/21 08:07:03;;;;;;;;;;;;;;;;;;5074536;28;28328;-84
2022/04/21 08:09:28;;;;;;;;;;;;;;;;;;5074428;28;28466;-86
2022/04/21 08:11:53;;;;;;;;;;;;;;;;;;5074485;28;28513;-86
2022/04/21 08:14:18;;;;;;;;;;;;;;;;;;5073249;28;28358;-84
2022/04/21 08:16:43;;;;;;;;;;;;;;;;;;5074498;28;28361;-84
2022/04/21 08:19:08;;;;;;;;;;;;;;;;;;5074674;28;29377;-83
2022/04/21 08:21:34;;;;;;;;;;;;;;;;;;5074587;28;28441;-85
2022/04/21 08:32:33;;;;;;;;;;;;;;;;;;5058337;28;28326;-84
2022/04/21 08:34:56;;;;;;;;;;;;;;;;;;5057306;28;28450;-85
2022/04/21 08:37:21;;;;;;;;;;;;;;;;;;5057789;28;28466;-85
2022/04/21 08:39:47;;;;;;;;;;;;;;;;;;5056300;28;29157;-86
2022/04/21 08:42:12;;;;;;;;;;;;;;;;;;5057465;28;28304;-86
2022/04/21 08:44:39;;;;;;;;;;;;;;;;;;5057404;28;28291;-86
2022/04/21 08:47:04;;;;;;;;;;;;;;;;;;5057116;28;28449;-85
2022/04/21 08:49:30;;;;;;;;;;;;;;;;;;5057502;28;28273;-84
2022/04/21 08:51:55;;;;;;;;;;;;;;;;;;5065262;28;28363;-85
2022/04/21 08:54:20;;;;;;;;;;;;;;;;;;5077594;28;28454;-86
2022/04/21 08:56:45;;;;;;;;;;;;;;;;;;5076009;28;28387;-87
2022/04/21 08:59:10;;;;;;;;;;;;;;;;;;5077018;28;29033;-86
2022/04/21 09:01:35;;;;;;;;;;;;;;;;;;5077009;28;28419;-86
2022/04/21 09:04:01;;;;;;;;;;;;;;;;;;5077027;28;27767;-86
2022/04/21 09:06:26;;;;;;;;;;;;;;;;;;5077573;28;28446;-86
2022/04/21 09:08:51;;;;;;;;;;;;;;;;;;5076742;28;28902;-86
2022/04/21 09:11:17;;;;;;;;;;;;;;;;;;5076723;28;28447;-86
2022/04/21 09:13:42;;;;;;;;;;;;;;;;;;5077299;28;28461;-86
2022/04/21 09:16:07;;;;;;;;;;;;;;;;;;5076841;28;28351;-87
2022/04/21 09:18:32;;;;;;;;;;;;;;;;;;5076770;28;29144;-86
2022/04/21 09:20:58;;;;;;;;;;;;;;;;;;5076474;28;28032;-86
2022/04/21 09:23:23;;;;;;;;;;;;;;;;;;5076805;28;28382;-88
2022/04/21 09:25:48;;;;;;;;;;;;;;;;;;5077209;28;28504;-87
2022/04/21 09:28:13;;;;;;;;;;;;;;;;;;5075441;28;30506;-86
2022/04/21 09:30:38;;;;;;;;;;;;;;;;;;5076793;28;28331;-86
2022/04/21 09:33:03;;;;;;;;;;;;;;;;;;5075407;28;29699;-89
2022/04/21 09:35:28;;;;;;;;;;;;;;;;;;5075223;28;28366;-87
2022/04/21 09:37:53;;;;;;;;;;;;;;;;;;5076874;28;28527;-88
2022/04/21 09:40:18;;;;;;;;;;;;;;;;;;5075541;28;28493;-88
2022/04/21 09:42:44;;;;;;;;;;;;;;;;;;5076562;28;28349;-88
2022/04/21 09:47:54;;;;;;;;;;;;;;;;;;5076239;28;28812;-86
2022/04/21 09:50:19;;;;;;;;;;;;;;;;;;5076570;28;28487;-86
2022/04/21 09:52:44;;;;;;;;;;;;;;;;;;5076421;28;28468;-86
2022/04/21 09:55:10;;;;;;;;;;;;;;;;;;5076689;28;28397;-87
2022/04/21 09:57:35;;;;;;;;;;;;;;;;;;5076422;28;29471;-86
2022/04/21 10:00:00;;;;;;;;;;;;;;;;;;5076408;28;28355;-87
2022/04/21 10:02:25;;;;;;;;;;;;;;;;;;5076461;28;28378;-87
2022/04/21 10:04:50;;;;;;;;;;;;;;;;;;5076334;28;28474;-87
2022/04/21 10:07:16;;;;;;;;;;;;;;;;;;5076420;28;29406;-86
2022/04/21 10:09:41;;;;;;;;;;;;;;;;;;5076370;28;28438;-87
2022/04/21 10:12:06;;;;;;;;;;;;;;;;;;5076355;28;28448;-86
2022/04/21 10:14:31;;;;;;;;;;;;;;;;;;5076741;28;28336;-86
2022/04/21 10:16:56;;;;;;;;;;;;;;;;;;5076102;28;28367;-87
2022/04/21 10:19:21;;;;;;;;;;;;;;;;;;5076185;28;28402;-87
2022/04/21 10:21:48;;;;;;;;;;;;;;;;;;5076110;28;28406;-89
2022/04/21 10:24:13;;;;;;;;;;;;;;;;;;5076222;28;28299;-87
2022/04/21 10:26:38;;;;;;;;;;;;;;;;;;5076099;28;28405;-86
2022/04/21 10:29:05;;;;;;;;;;;;;;;;;;5075789;28;28336;-88
2022/04/21 10:31:30;;;;;;;;;;;;;;;;;;5075957;28;28383;-86
2022/04/21 10:33:55;;;;;;;;;;;;;;;;;;5076265;28;28357;-89
2022/04/21 10:36:20;;;;;;;;;;;;;;;;;;5078390;28;28422;-87
2022/04/21 10:38:46;;;;;;;;;;;;;;;;;;5086502;28;27861;-87
2022/04/21 10:41:11;;;;;;;;;;;;;;;;;;5081432;28;28407;-89
2022/04/21 10:43:36;;;;;;;;;;;;;;;;;;5080209;28;28451;-85
2022/04/21 10:46:01;;;;;;;;;;;;;;;;;;5078516;28;28491;-86
2022/04/21 10:48:26;;;;;;;;;;;;;;;;;;5075858;28;28332;-81
2022/04/21 10:50:51;;;;;;;;;;;;;;;;;;5075714;28;28388;-86
2022/04/21 10:58:47;;;;;;;;;;;;;;;;;;5075369;28;28283;-83
2022/04/21 11:01:12;;;;;;;;;;;;;;;;;;5075826;28;28399;-85
2022/04/21 11:03:37;;;;;;;;;;;;;;;;;;5075252;28;28364;-84
2022/04/21 11:06:03;;;;;;;;;;;;;;;;;;5075415;28;28401;-85
2022/04/21 11:08:28;;;;;;;;;;;;;;;;;;5075389;28;28440;-84
2022/04/21 11:10:53;;;;;;;;;;;;;;;;;;5075006;28;28297;-84
2022/04/21 11:13:18;;;;;;;;;;;;;;;;;;5075725;28;28512;-84
2022/04/21 11:15:43;;;;;;;;;;;;;;;;;;5075354;28;29354;-86
2022/04/21 11:18:09;;;;;;;;;;;;;;;;;;5076062;28;28557;-90
2022/04/21 11:20:34;;;;;;;;;;;;;;;;;;5075434;28;28403;-90
2022/04/21 11:22:59;;;;;;;;;;;;;;;;;;5075555;28;28520;-90
2022/04/21 11:25:24;;;;;;;;;;;;;;;;;;5075330;28;28468;-88
2022/04/21 11:27:49;;;;;;;;;;;;;;;;;;5075085;28;28501;-88
2022/04/21 11:30:15;;;;;;;;;;;;;;;;;;5075508;28;28381;-91
2022/04/21 11:32:40;;;;;;;;;;;;;;;;;;5074745;28;28502;-91
2022/04/21 11:35:05;;;;;;;;;;;;;;;;;;5075916;28;29170;-90
2022/04/21 11:37:30;;;;;;;;;;;;;;;;;;5075504;28;28458;-90
2022/04/21 11:39:55;;;;;;;;;;;;;;;;;;5076042;28;28497;-90
2022/04/21 11:42:20;;;;;;;;;;;;;;;;;;5076323;28;28549;-90
2022/04/21 11:44:45;;;;;;;;;;;;;;;;;;5075326;28;28532;-88
2022/04/21 11:47:13;;;;;;;;;;;;;;;;;;5075522;28;28439;-88
2022/04/21 11:49:38;;;;;;;;;;;;;;;;;;5074985;28;28466;-89
2022/04/21 11:52:03;;;;;;;;;;;;;;;;;;5075020;28;28386;-90
2022/04/21 11:54:28;;;;;;;;;;;;;;;;;;5075676;28;28319;-91
2022/04/21 11:56:53;;;;;;;;;;;;;;;;;;5074281;28;28481;-91
2022/04/21 11:59:18;;;;;;;;;;;;;;;;;;5073674;28;28247;-90
2022/04/21 12:07:11;;;;;;;;;;;;;;;;;;5084469;28;28410;-95
2022/04/21 12:09:36;;;;;;;;;;;;;;;;;;5084535;28;28406;-96
2022/04/21 12:12:01;;;;;;;;;;;;;;;;;;5082647;28;28461;-95
2022/04/21 12:14:26;;;;;;;;;;;;;;;;;;5084596;28;28366;-93
2022/04/21 12:16:53;;;;;;;;;;;;;;;;;;5086469;28;27697;-95
2022/04/21 12:19:18;;;;;;;;;;;;;;;;;;5090678;28;27767;-95
2022/04/21 12:21:43;;;;;;;;;;;;;;;;;;5087992;28;27857;-95
2022/04/21 12:24:08;;;;;;;;;;;;;;;;;;5085490;28;28213;-94
2022/04/21 12:26:33;;;;;;;;;;;;;;;;;;5082123;28;28473;-95
2022/04/21 12:28:59;;;;;;;;;;;;;;;;;;5083002;28;28352;-95
2022/04/21 12:31:24;;;;;;;;;;;;;;;;;;5082705;28;28524;-95
2022/04/21 12:33:50;;;;;;;;;;;;;;;;;;5083296;28;28310;-95
2022/04/21 12:36:15;;;;;;;;;;;;;;;;;;5079909;28;28481;-92
2022/04/21 12:38:53;;;;;;;;;;;;;;;;;;5077866;28;28342;-95
2022/04/21 12:41:18;;;;;;;;;;;;;;;;;;5077990;28;28348;-93
2022/04/21 12:43:43;;;;;;;;;;;;;;;;;;5079006;28;33697;-94
2022/04/21 12:46:08;;;;;;;;;;;;;;;;;;5081150;28;28398;-94
2022/04/21 12:48:34;;;;;;;;;;;;;;;;;;5081723;28;28550;-89
2022/04/21 12:51:00;;;;;;;;;;;;;;;;;;5083438;28;28414;-96
2022/04/21 12:53:25;;;;;;;;;;;;;;;;;;5082174;28;30756;-96
2022/04/21 12:55:51;;;;;;;;;;;;;;;;;;5082097;28;28469;-95
2022/04/21 12:58:16;;;;;;;;;;;;;;;;;;5082200;28;28428;-94
2022/04/21 13:00:41;;;;;;;;;;;;;;;;;;5086303;28;28231;-94
2022/04/21 13:03:06;;;;;;;;;;;;;;;;;;5081257;28;28435;-95
2022/04/21 13:05:32;;;;;;;;;;;;;;;;;;5081568;28;28593;-96
2022/04/21 13:07:57;;;;;;;;;;;;;;;;;;5081338;28;28367;-95
2022/04/21 13:10:22;;;;;;;;;;;;;;;;;;5081188;28;28280;-94
2022/04/21 13:12:47;;;;;;;;;;;;;;;;;;5080694;28;28351;-96
2022/04/21 13:15:12;;;;;;;;;;;;;;;;;;5080068;28;28541;-96
2022/04/21 13:17:38;;;;;;;;;;;;;;;;;;5078040;28;28470;-90
2022/04/21 13:20:03;;;;;;;;;;;;;;;;;;5078351;28;28499;-92
2022/04/21 13:22:28;;;;;;;;;;;;;;;;;;5078355;28;29302;-93
2022/04/21 13:24:53;;;;;;;;;;;;;;;;;;5078503;28;28229;-92
2022/04/21 13:27:21;;;;;;;;;;;;;;;;;;5076500;28;28442;-90
2022/04/21 13:29:47;;;;;;;;;;;;;;;;;;5078607;28;28442;-89
2022/04/21 13:34:57;;;;;;;;;;;;;;;;;;5078351;28;28513;-91
2022/04/21 13:37:22;;;;;;;;;;;;;;;;;;5076524;28;28273;-91
2022/04/21 13:39:47;;;;;;;;;;;;;;;;;;5076996;28;28371;-92
2022/04/21 13:42:12;;;;;;;;;;;;;;;;;;5077734;28;28394;-92
2022/04/21 13:44:38;;;;;;;;;;;;;;;;;;5078021;28;28320;-90
2022/04/21 13:47:03;;;;;;;;;;;;;;;;;;5077401;28;28565;-90
2022/04/21 13:49:29;;;;;;;;;;;;;;;;;;5077596;28;28385;-92
2022/04/21 13:51:54;;;;;;;;;;;;;;;;;;5077818;28;28443;-91
2022/04/21 13:54:19;;;;;;;;;;;;;;;;;;5077676;28;28508;-91
2022/04/21 13:56:45;;;;;;;;;;;;;;;;;;5077539;28;28378;-94
2022/04/21 13:59:10;;;;;;;;;;;;;;;;;;5077096;28;28393;-88
2022/04/21 14:01:35;;;;;;;;;;;;;;;;;;5076802;28;28374;-87
2022/04/21 14:04:00;;;;;;;;;;;;;;;;;;5076632;28;28438;-90
2022/04/21 14:06:25;;;;;;;;;;;;;;;;;;5077024;28;28384;-88
2022/04/21 14:08:50;;;;;;;;;;;;;;;;;;5076953;28;28442;-89
2022/04/21 14:11:16;;;;;;;;;;;;;;;;;;5076399;28;28666;-86
2022/04/21 14:13:41;;;;;;;;;;;;;;;;;;5076419;28;28435;-86
2022/04/21 14:16:06;;;;;;;;;;;;;;;;;;5076598;28;28258;-86
2022/04/21 14:18:31;;;;;;;;;;;;;;;;;;5079182;28;28435;-94
2022/04/21 14:20:56;;;;;;;;;;;;;;;;;;5078419;28;30831;-95
2022/04/21 14:23:21;;;;;;;;;;;;;;;;;;5079814;28;27790;-95
2022/04/21 14:25:46;;;;;;;;;;;;;;;;;;5079562;28;28336;-94
2022/04/21 14:28:11;;;;;;;;;;;;;;;;;;5080397;28;28466;-94
2022/04/21 14:30:36;;;;;;;;;;;;;;;;;;5081451;28;28368;-95
2022/04/21 14:33:02;;;;;;;;;;;;;;;;;;5080667;28;28242;-95
2022/04/21 14:35:27;;;;;;;;;;;;;;;;;;5080379;28;28311;-95
2022/04/21 14:46:03;;;;;;;;;;;;;;;;;;5076318;28;27894;-91
2022/04/21 14:48:29;;;;;;;;;;;;;;;;;;5076235;28;28452;-91
2022/04/21 14:50:54;;;;;;;;;;;;;;;;;;5076653;28;28546;-88
2022/04/21 14:53:19;;;;;;;;;;;;;;;;;;5076100;28;28413;-87
2022/04/21 14:55:44;;;;;;;;;;;;;;;;;;5075994;28;28348;-86
2022/04/21 14:58:09;;;;;;;;;;;;;;;;;;5076236;28;28393;-89
2022/04/21 15:00:34;;;;;;;;;;;;;;;;;;5075644;28;28568;-90
2022/04/21 15:02:59;;;;;;;;;;;;;;;;;;5076048;28;28438;-90
2022/04/21 15:05:24;;;;;;;;;;;;;;;;;;5076020;28;28355;-92
2022/04/21 15:07:50;;;;;;;;;;;;;;;;;;5076552;28;28406;-87
2022/04/21 15:10:15;;;;;;;;;;;;;;;;;;5075221;28;28452;-85
2022/04/21 15:12:40;;;;;;;;;;;;;;;;;;5075015;28;28469;-86
2022/04/21 15:15:07;;;;;;;;;;;;;;;;;;5074309;28;28525;-83
2022/04/21 15:17:32;;;;;;;;;;;;;;;;;;5076743;28;28305;-91
2022/04/21 15:19:57;;;;;;;;;;;;;;;;;;5076195;28;28681;-87
2022/04/21 15:22:22;;;;;;;;;;;;;;;;;;5077400;28;28534;-90
2022/04/21 15:24:52;;;;;;;;;;;;;;;;;;5077413;28;28295;-90
2022/04/21 15:27:17;;;;;;;;;;;;;;;;;;5077445;28;28544;-90
2022/04/21 15:29:42;;;;;;;;;;;;;;;;;;5077541;28;28573;-88
2022/04/21 15:32:08;;;;;;;;;;;;;;;;;;5076755;28;28505;-96
2022/04/21 15:34:33;;;;;;;;;;;;;;;;;;5075297;28;28487;-88
2022/04/21 15:36:58;;;;;;;;;;;;;;;;;;5076111;28;28644;-88
2022/04/21 15:39:23;;;;;;;;;;;;;;;;;;5075113;28;28487;-90
2022/04/21 15:41:48;;;;;;;;;;;;;;;;;;5076366;28;28398;-90
2022/04/21 15:44:13;;;;;;;;;;;;;;;;;;5076686;28;28423;-88
2022/04/21 15:46:38;;;;;;;;;;;;;;;;;;5077268;28;28801;-89
2022/04/21 15:49:05;;;;;;;;;;;;;;;;;;5077073;28;28386;-89
2022/04/21 15:51:30;;;;;;;;;;;;;;;;;;5076858;28;28595;-89
2022/04/21 15:59:23;;;;;;;;;;;;;;;;;;5074834;28;28805;-88
2022/04/21 16:01:48;;;;;;;;;;;;;;;;;;5076099;28;28432;-88
2022/04/21 16:04:14;;;;;;;;;;;;;;;;;;5076248;28;28458;-90
2022/04/21 16:06:39;;;;;;;;;;;;;;;;;;5079691;28;28455;-95
2022/04/21 16:09:04;;;;;;;;;;;;;;;;;;5079787;28;29313;-93
2022/04/21 16:11:29;;;;;;;;;;;;;;;;;;5080153;28;28383;-93
2022/04/21 16:13:54;;;;;;;;;;;;;;;;;;5079394;28;28387;-94
2022/04/21 16:16:19;;;;;;;;;;;;;;;;;;5080983;28;28408;-94
2022/04/21 16:18:44;;;;;;;;;;;;;;;;;;5077986;28;29560;-92
2022/04/21 16:21:09;;;;;;;;;;;;;;;;;;5079170;28;27806;-90
2022/04/21 16:23:36;;;;;;;;;;;;;;;;;;5077310;28;28318;-91
2022/04/21 16:26:01;;;;;;;;;;;;;;;;;;5078381;28;28406;-92
2022/04/21 16:28:26;;;;;;;;;;;;;;;;;;5078005;28;28431;-91
2022/04/21 16:30:52;;;;;;;;;;;;;;;;;;5077148;28;28398;-94
2022/04/21 16:33:17;;;;;;;;;;;;;;;;;;5076397;28;28422;-90
2022/04/21 16:35:42;;;;;;;;;;;;;;;;;;5080214;28;35038;-94
2022/04/21 16:38:07;;;;;;;;;;;;;;;;;;5076792;28;29648;-85
2022/04/21 16:40:33;;;;;;;;;;;;;;;;;;5075544;28;28371;-95
2022/04/21 16:42:59;;;;;;;;;;;;;;;;;;5074771;28;28383;-90
2022/04/21 16:45:24;;;;;;;;;;;;;;;;;;5054435;28;28315;-87
2022/04/21 16:47:49;;;;;;;;;;;;;;;;;;5054096;28;28581;-87
2022/04/21 16:50:14;;;;;;;;;;;;;;;;;;5058297;28;27827;-93
2022/04/21 16:52:39;;;;;;;;;;;;;;;;;;5058014;28;28315;-90
2022/04/21 16:55:05;;;;;;;;;;;;;;;;;;5060817;28;28419;-92
2022/04/21 16:57:35;;;;;;;;;;;;;;;;;;5057424;28;29171;-89
2022/04/21 17:00:01;;;;;;;;;;;;;;;;;;5058583;28;28408;-89
2022/04/21 17:02:59;;;;;;;;;;;;;;;;;;5058476;28;28364;-83
2022/04/21 17:05:17;;;;;;;;;;;;;;;;;;5058333;28;28362;-88
2022/04/21 17:07:43;;;;;;;;;;;;;;;;;;5056968;28;29642;-87
2022/04/21 17:10:08;;;;;;;;;;;;;;;;;;5056991;28;28506;-87
2022/04/21 17:12:33;;;;;;;;;;;;;;;;;;5057205;28;28443;-87
2022/04/21 17:14:58;;;;;;;;;;;;;;;;;;5057077;28;28525;-88
2022/04/21 17:17:23;;;;;;;;;;;;;;;;;;5057151;28;29387;-88
2022/04/21 17:19:48;;;;;;;;;;;;;;;;;;5056949;28;28406;-88
2022/04/21 17:22:14;;;;;;;;;;;;;;;;;;5057306;28;28388;-88
2022/04/21 17:24:39;;;;;;;;;;;;;;;;;;5056874;28;28438;-88
2022/04/21 17:27:04;;;;;;;;;;;;;;;;;;5056972;28;28448;-89
2022/04/21 17:29:29;;;;;;;;;;;;;;;;;;5056851;28;28377;-87
2022/04/21 17:31:54;;;;;;;;;;;;;;;;;;5056931;28;28410;-87
2022/04/21 17:34:19;;;;;;;;;;;;;;;;;;5056944;28;28478;-85
2022/04/21 17:36:44;;;;;;;;;;;;;;;;;;5056730;28;29888;-84
2022/04/21 17:39:09;;;;;;;;;;;;;;;;;;5056765;28;28501;-82
2022/04/21 17:41:34;;;;;;;;;;;;;;;;;;5056449;28;28383;-82
2022/04/21 17:44:00;;;;;;;;;;;;;;;;;;5056793;28;28473;-83
2022/04/21 17:46:25;;;;;;;;;;;;;;;;;;5056307;28;28594;-81